Time;durP1;ratioP1;P1;durP2;ratioP2;P2;SDS_P1;SDS_P2;PMS_P1;PMS_P2;Temp;Humidity;BMP_temperature;BMP_pressure;BME280_temperature;BME280_humidity;BME280_pressure;Samples;Min_cycle;Max_cycle;Signal;HPM_P1;HPM_P2
2023/09/12 00:27:26;;;;;;;18.13;12.25;;;19.50;99.90;;;;;;5003994;23;20657;-66
2023/09/12 00:29:52;;;;;;;19.52;11.43;;;19.60;99.90;;;;;;5006802;28;20084;-66
2023/09/12 00:32:18;;;;;;;17.67;11.68;;;19.50;99.90;;;;;;5008750;28;20555;-66
2023/09/12 00:34:43;;;;;;;16.25;11.40;;;19.60;99.90;;;;;;5009133;28;20392;-66
2023/09/12 00:37:09;;;;;;;16.50;11.57;;;19.60;99.90;;;;;;5008968;28;20049;-66
2023/09/12 00:39:35;;;;;;;15.38;11.25;;;19.50;99.90;;;;;;5007095;28;20526;-66
2023/09/12 00:42:01;;;;;;;16.88;12.05;;;19.50;99.90;;;;;;5020602;28;20050;-67
2023/09/12 00:44:27;;;;;;;18.52;11.85;;;19.50;99.90;;;;;;4993400;28;20049;-66
2023/09/12 00:46:54;;;;;;;15.40;11.15;;;19.50;99.90;;;;;;4996007;28;20052;-66
2023/09/12 00:49:22;;;;;;;21.17;11.98;;;19.40;99.90;;;;;;5009387;28;20041;-66
2023/09/12 00:51:49;;;;;;;18.48;12.27;;;19.40;99.90;;;;;;5009174;28;20080;-66
2023/09/12 00:54:15;;;;;;;19.50;12.07;;;19.40;99.90;;;;;;5008221;28;20045;-67
2023/09/12 00:56:43;;;;;;;19.48;12.32;;;19.40;99.90;;;;;;5009061;28;20197;-67
2023/09/12 00:59:10;;;;;;;16.85;12.52;;;19.40;99.90;;;;;;4990703;28;20073;-67
2023/09/12 01:01:36;;;;;;;13.10;10.07;;;19.40;99.90;;;;;;5008329;28;20062;-68
2023/09/12 01:04:02;;;;;;;14.80;10.85;;;19.40;99.90;;;;;;4990152;28;20061;-68
2023/09/12 01:06:31;;;;;;;15.63;11.52;;;19.40;99.90;;;;;;4991505;28;20085;-68
2023/09/12 01:08:57;;;;;;;16.20;12.05;;;19.30;99.90;;;;;;5008276;28;20054;-68
2023/09/12 01:11:24;;;;;;;14.90;12.23;;;19.30;99.90;;;;;;4990487;28;20424;-68
2023/09/12 01:13:49;;;;;;;16.48;11.88;;;19.30;99.90;;;;;;5009060;28;20053;-67
2023/09/12 01:16:15;;;;;;;18.02;12.85;;;19.30;99.90;;;;;;5008200;28;20443;-67
2023/09/12 01:18:42;;;;;;;17.75;12.60;;;19.20;99.90;;;;;;5009227;28;20042;-68
2023/09/12 01:21:45;;;;;;;19.80;12.65;;;19.20;99.90;;;;;;5008028;28;20053;-68
2023/09/12 01:24:45;;;;;;;17.67;12.77;;;19.20;99.90;;;;;;5008656;28;20046;-68
2023/09/12 01:27:11;;;;;;;17.60;12.85;;;19.20;99.90;;;;;;4991073;28;20064;-68
2023/09/12 01:29:39;;;;;;;19.17;13.15;;;19.20;99.90;;;;;;5006089;28;20095;-68
2023/09/12 01:32:05;;;;;;;18.63;13.88;;;19.20;99.90;;;;;;4991473;28;20092;-68
2023/09/12 01:34:31;;;;;;;22.80;13.10;;;19.10;99.90;;;;;;5019959;28;20083;-68
2023/09/12 01:36:57;;;;;;;18.85;13.48;;;19.20;99.90;;;;;;5009246;28;20137;-68
2023/09/12 01:39:22;;;;;;;18.10;13.13;;;19.20;99.90;;;;;;4990400;28;20547;-68
2023/09/12 01:41:52;;;;;;;18.92;13.63;;;19.20;99.90;;;;;;5008012;28;20085;-69
2023/09/12 01:44:18;;;;;;;;;;;19.10;99.90;;;;;;4991751;28;20496;-68
2023/09/12 01:46:44;;;;;;;19.55;12.85;;;19.10;99.90;;;;;;4989036;28;19934;-68
2023/09/12 01:49:11;;;;;;;16.23;12.02;;;19.10;99.90;;;;;;5008909;28;20045;-68
2023/09/12 01:51:37;;;;;;;15.75;11.63;;;19.10;99.90;;;;;;5007559;28;20125;-68
2023/09/12 01:54:04;;;;;;;17.23;12.80;;;19.10;99.90;;;;;;4990832;28;20670;-68
2023/09/12 01:56:31;;;;;;;17.85;14.02;;;19.10;99.90;;;;;;4970765;28;20054;-68
2023/09/12 01:58:57;;;;;;;17.58;12.90;;;19.00;99.90;;;;;;4988073;28;20049;-67
2023/09/12 02:01:24;;;;;;;21.83;11.82;;;19.00;99.90;;;;;;5008535;28;20144;-68
2023/09/12 02:03:50;;;;;;;16.73;12.75;;;19.10;99.90;;;;;;5007228;28;20117;-68
2023/09/12 02:06:16;;;;;;;17.73;12.40;;;19.00;99.90;;;;;;4991251;28;20817;-68
2023/09/12 02:08:41;;;;;;;19.48;12.68;;;19.00;99.90;;;;;;5007385;28;20393;-68
2023/09/12 02:11:07;;;;;;;16.75;12.27;;;19.00;99.90;;;;;;4990872;28;20057;-68
2023/09/12 02:13:33;;;;;;;18.88;12.35;;;18.90;99.90;;;;;;4989873;28;20081;-68
2023/09/12 02:16:00;;;;;;;17.15;12.50;;;19.00;99.90;;;;;;5001337;28;20550;-68
2023/09/12 02:18:25;;;;;;;17.45;12.68;;;18.90;99.90;;;;;;5008167;28;20044;-67
2023/09/12 02:20:51;;;;;;;18.05;12.57;;;18.90;99.90;;;;;;4973343;28;20045;-68
2023/09/12 02:23:17;;;;;;;17.23;12.23;;;19.00;99.90;;;;;;4976449;28;20054;-68
2023/09/12 02:25:42;;;;;;;14.82;12.27;;;18.90;99.90;;;;;;5010075;28;20058;-68
2023/09/12 02:28:08;;;;;;;19.35;11.95;;;18.90;99.90;;;;;;4991257;28;20077;-68
2023/09/12 02:30:34;;;;;;;15.68;11.77;;;18.90;99.90;;;;;;4992535;28;20077;-68
2023/09/12 02:33:00;;;;;;;21.52;12.13;;;19.00;99.90;;;;;;4993697;28;20073;-68
2023/09/12 02:35:27;;;;;;;19.70;11.98;;;19.00;99.90;;;;;;4968668;28;20456;-68
2023/09/12 02:37:53;;;;;;;16.27;12.35;;;18.90;99.90;;;;;;5007961;28;20096;-68
2023/09/12 02:40:19;;;;;;;15.05;12.98;;;18.90;99.90;;;;;;5011719;28;20081;-68
2023/09/12 02:42:45;;;;;;;20.10;12.57;;;18.90;99.90;;;;;;4973899;28;20093;-68
2023/09/12 02:45:10;;;;;;;23.23;11.55;;;18.80;99.90;;;;;;5006970;28;20451;-68
2023/09/12 02:47:36;;;;;;;18.58;12.60;;;18.80;99.90;;;;;;5010249;28;20133;-68
2023/09/12 02:50:02;;;;;;;19.20;12.13;;;18.80;99.90;;;;;;5011783;28;20092;-68
2023/09/12 02:52:27;;;;;;;15.48;12.68;;;18.80;99.90;;;;;;5010566;28;20124;-68
2023/09/12 02:54:53;;;;;;;19.35;12.50;;;18.80;99.90;;;;;;4993643;28;20049;-68
2023/09/12 02:57:19;;;;;;;18.17;12.23;;;18.80;99.90;;;;;;4993742;28;20046;-68
2023/09/12 02:59:44;;;;;;;17.95;12.55;;;18.80;99.90;;;;;;4992872;28;20085;-68
2023/09/12 03:02:10;;;;;;;23.73;12.48;;;18.70;99.90;;;;;;5011616;28;20046;-68
2023/09/12 03:04:36;;;;;;;18.55;13.23;;;18.70;99.90;;;;;;4991907;28;20083;-68
2023/09/12 03:07:02;;;;;;;19.55;12.45;;;18.70;99.90;;;;;;4993900;28;20045;-68
2023/09/12 03:09:28;;;;;;;23.42;13.13;;;18.60;99.90;;;;;;5010734;28;20095;-68
2023/09/12 03:11:53;;;;;;;20.77;13.15;;;18.60;99.90;;;;;;4993604;28;20519;-68
2023/09/12 03:14:19;;;;;;;21.05;13.18;;;18.60;99.90;;;;;;5008753;28;20117;-67
2023/09/12 03:16:44;;;;;;;20.02;13.15;;;18.60;99.90;;;;;;5010692;28;20053;-67
2023/09/12 03:19:10;;;;;;;20.65;13.32;;;18.60;99.90;;;;;;4993048;28;20049;-67
2023/09/12 03:21:36;;;;;;;19.83;13.77;;;18.60;99.90;;;;;;4992147;28;20129;-68
2023/09/12 03:24:02;;;;;;;19.30;12.75;;;18.50;99.90;;;;;;5010575;28;20488;-68
2023/09/12 03:26:27;;;;;;;16.60;13.32;;;18.50;99.90;;;;;;5009506;28;20057;-68
2023/09/12 03:28:53;;;;;;;20.33;13.95;;;18.50;99.90;;;;;;4975235;28;20432;-68
2023/09/12 03:31:19;;;;;;;21.85;13.30;;;18.40;99.90;;;;;;5009075;28;20045;-68
2023/09/12 03:33:49;;;;;;;20.23;13.38;;;18.40;99.90;;;;;;5007264;28;20057;-68
2023/09/12 03:36:17;;;;;;;19.10;13.32;;;18.40;99.90;;;;;;4990954;28;20058;-68
2023/09/12 03:38:42;;;;;;;23.23;13.77;;;18.40;99.90;;;;;;5008745;28;20034;-67
2023/09/12 03:41:08;;;;;;;20.35;13.48;;;18.40;99.90;;;;;;4991878;28;20896;-68
2023/09/12 03:43:34;;;;;;;19.52;14.25;;;18.40;99.90;;;;;;5009132;28;20184;-67
2023/09/12 03:46:00;;;;;;;27.30;14.63;;;18.30;99.90;;;;;;5007475;28;20042;-68
2023/09/12 03:48:26;;;;;;;23.10;14.27;;;18.20;99.90;;;;;;4991173;28;20133;-67
2023/09/12 03:50:51;;;;;;;19.70;13.60;;;18.30;99.90;;;;;;5008653;28;20096;-67
2023/09/12 03:53:17;;;;;;;19.52;13.93;;;18.30;99.90;;;;;;5009465;28;20463;-67
2023/09/12 03:55:43;;;;;;;27.35;13.57;;;18.30;99.90;;;;;;4974373;28;20200;-67
2023/09/12 03:58:09;;;;;;;20.60;14.30;;;18.30;99.90;;;;;;5002420;28;20195;-67
2023/09/12 04:00:35;;;;;;;18.70;13.05;;;18.30;99.90;;;;;;4990667;28;20125;-68
2023/09/12 04:03:00;;;;;;;19.00;13.60;;;18.20;99.90;;;;;;5005134;28;20694;-68
2023/09/12 04:05:26;;;;;;;17.38;12.27;;;18.20;99.90;;;;;;4980615;28;20045;-67
2023/09/12 04:07:52;;;;;;;22.48;12.85;;;18.20;99.90;;;;;;5008153;28;20046;-68
2023/09/12 04:10:20;;;;;;;17.38;12.75;;;18.10;99.90;;;;;;5009566;28;20038;-68
2023/09/12 04:12:46;;;;;;;19.15;13.25;;;18.10;99.90;;;;;;5007669;28;20052;-68
2023/09/12 04:15:11;;;;;;;23.48;14.85;;;18.10;99.90;;;;;;5009023;28;20037;-67
2023/09/12 04:17:37;;;;;;;18.38;13.70;;;18.00;99.90;;;;;;5008032;28;20077;-68
2023/09/12 04:20:04;;;;;;;19.45;13.05;;;18.00;99.90;;;;;;5008350;28;20129;-68
2023/09/12 04:22:30;;;;;;;16.70;12.27;;;18.00;99.90;;;;;;5020570;28;20052;-68
2023/09/12 04:24:56;;;;;;;16.08;12.18;;;18.00;99.90;;;;;;4990741;28;20050;-68
2023/09/12 04:27:22;;;;;;;23.83;12.07;;;18.00;99.90;;;;;;5007737;28;20141;-68
2023/09/12 04:29:47;;;;;;;15.65;12.57;;;17.90;99.90;;;;;;4974255;28;20049;-68
2023/09/12 04:32:13;;;;;;;18.17;12.98;;;17.90;99.90;;;;;;5008670;28;20453;-68
2023/09/12 04:34:42;;;;;;;20.00;12.95;;;17.80;99.90;;;;;;4989860;28;20500;-68
2023/09/12 04:37:07;;;;;;;15.83;12.53;;;17.90;99.90;;;;;;4990708;28;20077;-68
2023/09/12 04:39:33;;;;;;;16.15;12.35;;;17.80;99.90;;;;;;4990259;28;20481;-68
2023/09/12 04:41:59;;;;;;;16.15;12.40;;;17.90;99.90;;;;;;4990374;28;20068;-68
2023/09/12 04:44:24;;;;;;;16.63;12.27;;;17.90;99.90;;;;;;4989919;28;20104;-68
2023/09/12 04:46:50;;;;;;;14.68;12.02;;;17.90;99.90;;;;;;5007149;28;20053;-68
2023/09/12 04:49:16;;;;;;;17.60;12.70;;;17.90;99.90;;;;;;4990317;28;20453;-68
2023/09/12 04:51:42;;;;;;;18.75;13.18;;;17.90;99.90;;;;;;4989881;28;20046;-68
2023/09/12 04:54:08;;;;;;;19.98;12.45;;;17.90;99.90;;;;;;4990435;28;20088;-68
2023/09/12 04:56:34;;;;;;;15.30;11.82;;;17.80;99.90;;;;;;5007434;28;20073;-68
2023/09/12 04:59:00;;;;;;;21.75;12.93;;;17.80;99.90;;;;;;4998235;28;20042;-68
2023/09/12 05:01:26;;;;;;;16.73;11.68;;;17.80;99.90;;;;;;4988165;28;20099;-68
2023/09/12 05:03:52;;;;;;;17.67;11.93;;;17.80;99.90;;;;;;4993597;28;20478;-68
2023/09/12 05:06:17;;;;;;;21.88;12.68;;;17.80;99.90;;;;;;4989692;28;20104;-69
2023/09/12 05:08:43;;;;;;;17.90;11.50;;;17.80;99.90;;;;;;5002865;28;20049;-68
2023/09/12 05:11:09;;;;;;;15.60;11.65;;;17.80;99.90;;;;;;5007484;28;20050;-68
2023/09/12 05:13:34;;;;;;;17.63;11.63;;;17.80;99.90;;;;;;5007247;28;20332;-68
2023/09/12 05:16:00;;;;;;;19.38;11.00;;;17.70;99.90;;;;;;5007256;28;20053;-68
2023/09/12 05:18:26;;;;;;;16.38;11.82;;;17.70;99.90;;;;;;4989684;28;20053;-68
2023/09/12 05:20:52;;;;;;;22.83;11.93;;;17.70;99.90;;;;;;5017703;28;20052;-68
2023/09/12 05:23:17;;;;;;;17.80;12.07;;;17.70;99.90;;;;;;5007237;28;20053;-68
2023/09/12 05:25:43;;;;;;;20.38;11.43;;;17.60;99.90;;;;;;4989575;28;20183;-68
2023/09/12 05:28:09;;;;;;;14.30;11.05;;;17.60;99.90;;;;;;4972939;28;20080;-68
2023/09/12 05:30:34;;;;;;;15.60;11.00;;;17.60;99.90;;;;;;5007145;28;20072;-68
2023/09/12 05:33:01;;;;;;;21.15;11.32;;;17.60;99.90;;;;;;5006627;28;20045;-69
2023/09/12 05:35:27;;;;;;;16.15;11.02;;;17.50;99.90;;;;;;4989261;28;20049;-68
2023/09/12 05:37:52;;;;;;;18.17;12.10;;;17.50;99.90;;;;;;5007344;28;20053;-68
2023/09/12 05:40:19;;;;;;;16.48;11.35;;;17.50;99.90;;;;;;5006504;28;20121;-69
2023/09/12 05:42:44;;;;;;;18.35;12.50;;;17.60;99.90;;;;;;5007159;28;20045;-68
2023/09/12 05:45:10;;;;;;;17.05;12.02;;;17.60;99.90;;;;;;4989211;28;20046;-68
2023/09/12 05:47:36;;;;;;;21.10;13.25;;;17.60;99.90;;;;;;4989502;28;20524;-68
2023/09/12 05:50:05;;;;;;;17.63;11.45;;;17.60;99.90;;;;;;4988920;28;20073;-69
2023/09/12 05:52:31;;;;;;;16.38;11.07;;;17.60;99.90;;;;;;4988913;28;20050;-69
2023/09/12 05:54:57;;;;;;;17.35;11.25;;;17.50;99.90;;;;;;4973421;28;20064;-69
2023/09/12 05:57:23;;;;;;;15.82;11.70;;;17.50;99.90;;;;;;5013507;28;20381;-68
2023/09/12 05:59:50;;;;;;;14.02;11.30;;;17.60;99.90;;;;;;4989554;28;20045;-68
2023/09/12 06:02:15;;;;;;;20.25;11.50;;;17.50;99.90;;;;;;4988265;28;20068;-68
2023/09/12 06:04:41;;;;;;;13.48;10.55;;;17.50;99.90;;;;;;4988932;28;20045;-68
2023/09/12 06:07:07;;;;;;;17.23;10.80;;;17.50;99.90;;;;;;5006314;28;20137;-68
2023/09/12 06:09:32;;;;;;;15.82;11.95;;;17.50;99.90;;;;;;5006801;28;20038;-68
2023/09/12 06:11:59;;;;;;;14.45;11.45;;;17.50;99.90;;;;;;5007373;28;20049;-68
2023/09/12 06:14:25;;;;;;;14.60;11.75;;;17.50;99.90;;;;;;4988829;28;20420;-67
2023/09/12 06:16:50;;;;;;;16.23;12.00;;;17.60;99.90;;;;;;5007006;28;20107;-68
2023/09/12 06:19:17;;;;;;;15.88;11.75;;;17.60;99.90;;;;;;5005766;28;20407;-68
2023/09/12 06:21:43;;;;;;;17.95;11.82;;;17.60;99.90;;;;;;5006557;28;20137;-67
2023/09/12 06:24:12;;;;;;;19.05;11.93;;;17.70;99.90;;;;;;5006095;28;20144;-68
2023/09/12 06:26:38;;;;;;;14.90;12.17;;;17.70;99.90;;;;;;5006793;28;20050;-68
2023/09/12 06:29:04;;;;;;;20.00;12.23;;;17.80;99.90;;;;;;4988354;28;20058;-68
2023/09/12 06:31:30;;;;;;;19.13;12.52;;;17.80;99.90;;;;;;5006306;28;20071;-68
2023/09/12 06:33:56;;;;;;;16.05;12.63;;;17.90;99.90;;;;;;5005797;28;20050;-69
2023/09/12 06:36:23;;;;;;;15.73;12.60;;;18.10;99.90;;;;;;5005746;28;20060;-69
2023/09/12 06:38:50;;;;;;;21.05;12.55;;;18.30;99.90;;;;;;4993441;28;20066;-68
2023/09/12 06:41:18;;;;;;;19.60;13.32;;;18.50;99.90;;;;;;4972439;28;20738;-68
2023/09/12 06:43:43;;;;;;;21.63;13.02;;;18.60;99.90;;;;;;5006452;28;20041;-69
2023/09/12 06:46:09;;;;;;;19.08;12.93;;;18.80;99.90;;;;;;5006253;28;20045;-68
2023/09/12 06:48:35;;;;;;;20.38;13.10;;;18.90;99.90;;;;;;4972222;28;20124;-68
2023/09/12 06:51:04;;;;;;;20.42;13.32;;;19.00;99.90;;;;;;5006834;28;20056;-68
2023/09/12 06:53:30;;;;;;;21.38;13.60;;;19.00;99.90;;;;;;5005902;28;20050;-69
2023/09/12 06:55:57;;;;;;;18.42;12.82;;;19.00;99.90;;;;;;4990112;28;20569;-69
2023/09/12 06:58:23;;;;;;;16.52;12.90;;;18.90;99.90;;;;;;4994860;28;20042;-69
2023/09/12 07:00:49;;;;;;;21.52;12.60;;;18.80;99.90;;;;;;4987862;28;20054;-68
2023/09/12 07:03:14;;;;;;;16.80;12.55;;;18.80;99.90;;;;;;4996294;28;20049;-68
2023/09/12 07:05:41;;;;;;;17.67;12.73;;;18.80;99.90;;;;;;4971624;28;20077;-68
2023/09/12 07:08:08;;;;;;;18.35;12.93;;;18.80;99.90;;;;;;5010564;28;20518;-69
2023/09/12 07:10:34;;;;;;;19.63;13.43;;;18.80;99.90;;;;;;4992101;28;20046;-69
2023/09/12 07:13:00;;;;;;;23.80;13.23;;;18.90;99.90;;;;;;4992493;28;20140;-68
2023/09/12 07:15:25;;;;;;;18.98;13.15;;;19.00;99.90;;;;;;4991327;28;20121;-69
2023/09/12 07:17:51;;;;;;;23.15;13.40;;;19.10;99.90;;;;;;5009022;28;20042;-68
2023/09/12 07:20:19;;;;;;;23.00;13.90;;;19.00;99.90;;;;;;4991541;28;20052;-69
2023/09/12 07:22:46;;;;;;;24.58;14.68;;;19.00;99.90;;;;;;5009524;28;20439;-68
2023/09/12 07:25:13;;;;;;;25.55;15.23;;;19.20;99.90;;;;;;5000981;28;20496;-69
2023/09/12 07:27:39;;;;;;;16.65;13.52;;;19.20;99.90;;;;;;5008564;28;20049;-69
2023/09/12 07:30:06;;;;;;;26.05;15.73;;;19.30;99.90;;;;;;4974440;28;20057;-69
2023/09/12 07:32:32;;;;;;;28.15;17.10;;;19.40;99.90;;;;;;4990520;28;20046;-69
2023/09/12 07:34:58;;;;;;;27.10;16.05;;;19.50;99.90;;;;;;5007077;28;20046;-69
2023/09/12 07:37:24;;;;;;;25.45;15.82;;;19.50;99.90;;;;;;5007735;28;20424;-69
2023/09/12 07:39:49;;;;;;;22.38;14.77;;;19.70;99.90;;;;;;5006950;28;20127;-69
2023/09/12 07:42:15;;;;;;;20.70;13.63;;;19.70;99.90;;;;;;5006620;28;20046;-68
2023/09/12 07:44:41;;;;;;;19.23;12.82;;;19.80;99.90;;;;;;5008037;28;20138;-69
2023/09/12 07:47:07;;;;;;;20.92;13.32;;;19.80;99.90;;;;;;5009170;28;20103;-69
2023/09/12 07:49:33;;;;;;;20.52;13.57;;;19.90;99.90;;;;;;4989350;28;20088;-68
2023/09/12 07:51:58;;;;;;;18.25;12.45;;;19.90;99.90;;;;;;5007369;28;20050;-68
2023/09/12 07:54:24;;;;;;;19.25;13.48;;;20.00;99.90;;;;;;5007204;28;20084;-68
2023/09/12 07:56:50;;;;;;;21.88;14.05;;;20.00;99.90;;;;;;4987315;28;20104;-68
2023/09/12 07:59:16;;;;;;;27.40;15.30;;;20.10;99.90;;;;;;5006064;28;20054;-68
2023/09/12 08:01:42;;;;;;;22.05;14.95;;;20.10;99.90;;;;;;4997877;28;20163;-68
2023/09/12 08:04:08;;;;;;;22.75;14.18;;;20.10;99.90;;;;;;4940224;28;20069;-68
2023/09/12 08:06:33;;;;;;;19.65;14.13;;;20.10;99.90;;;;;;5005852;28;20065;-68
2023/09/12 08:09:00;;;;;;;23.20;15.45;;;20.00;99.90;;;;;;4987424;28;20054;-67
2023/09/12 08:11:27;;;;;;;19.95;15.07;;;20.00;99.90;;;;;;4984587;28;20101;-69
2023/09/12 08:13:52;;;;;;;21.25;14.50;;;20.10;99.90;;;;;;4973570;28;20086;-68
2023/09/12 08:16:18;;;;;;;26.75;16.27;;;20.10;99.90;;;;;;5003397;28;20492;-69
2023/09/12 08:18:44;;;;;;;25.10;16.73;;;20.20;99.90;;;;;;4981470;28;20045;-68
2023/09/12 08:21:10;;;;;;;25.13;16.48;;;20.30;99.90;;;;;;4980196;28;20046;-68
2023/09/12 08:23:36;;;;;;;22.45;15.70;;;20.50;99.90;;;;;;5001228;28;20564;-68
2023/09/12 08:26:02;;;;;;;27.50;16.98;;;20.60;99.90;;;;;;4998248;28;20087;-68
2023/09/12 08:28:28;;;;;;;23.40;15.20;;;20.70;99.90;;;;;;5007192;28;20500;-68
2023/09/12 08:30:53;;;;;;;29.15;16.45;;;20.80;99.90;;;;;;4990864;28;20054;-69
2023/09/12 08:33:19;;;;;;;23.38;15.82;;;20.80;99.90;;;;;;5004227;28;20508;-68
2023/09/12 08:35:45;;;;;;;25.13;16.67;;;20.90;99.90;;;;;;5000452;28;20099;-68
2023/09/12 08:38:11;;;;;;;23.88;15.02;;;20.90;99.90;;;;;;4989293;28;20060;-68
2023/09/12 08:40:37;;;;;;;23.35;16.40;;;20.90;99.90;;;;;;5000833;28;20046;-68
2023/09/12 08:43:04;;;;;;;28.40;16.92;;;20.80;99.90;;;;;;4994693;28;20085;-69
2023/09/12 08:45:30;;;;;;;25.08;16.73;;;20.70;99.90;;;;;;5001813;28;20057;-68
2023/09/12 08:48:02;;;;;;;22.55;15.13;;;20.70;99.90;;;;;;4999780;28;20184;-68
2023/09/12 08:50:32;;;;;;;22.98;14.88;;;20.70;99.90;;;;;;5006206;28;20080;-68
2023/09/12 08:52:58;;;;;;;25.88;15.68;;;20.50;99.90;;;;;;5009435;28;20514;-68
2023/09/12 08:55:24;;;;;;;32.42;15.50;;;20.50;99.90;;;;;;4988205;28;20038;-68
2023/09/12 08:57:51;;;;;;;21.48;15.15;;;20.50;99.90;;;;;;5003511;28;20049;-68
2023/09/12 09:00:19;;;;;;;26.23;16.48;;;20.40;99.90;;;;;;4989398;28;20446;-68
2023/09/12 09:02:45;;;;;;;20.52;14.10;;;20.30;99.90;;;;;;4988539;28;20444;-68
2023/09/12 09:05:12;;;;;;;25.08;15.77;;;20.20;99.90;;;;;;4970181;28;20085;-68
2023/09/12 09:07:40;;;;;;;20.83;14.93;;;20.10;99.90;;;;;;5006218;28;20050;-68
2023/09/12 09:10:08;;;;;;;24.48;14.70;;;20.10;99.90;;;;;;5003235;28;20519;-68
2023/09/12 09:12:35;;;;;;;21.95;15.73;;;20.00;99.90;;;;;;5006174;28;20056;-68
2023/09/12 09:15:23;;;;;;;24.20;16.13;;;20.00;99.90;;;;;;4969731;28;20149;-68
2023/09/12 09:17:50;;;;;;;24.63;15.50;;;20.00;99.90;;;;;;4988445;28;20038;-68
2023/09/12 09:20:26;;;;;;;24.73;16.67;;;19.90;99.90;;;;;;5006039;28;20660;-68
2023/09/12 09:23:05;;;;;;;19.77;14.45;;;19.90;99.90;;;;;;5005507;28;20046;-68
2023/09/12 09:25:51;;;;;;;21.60;15.88;;;19.90;99.90;;;;;;4988868;28;20049;-68
2023/09/12 09:28:20;;;;;;;22.90;15.63;;;20.00;99.90;;;;;;5000259;28;20066;-68
2023/09/12 09:30:48;;;;;;;25.15;15.77;;;19.90;99.90;;;;;;4994119;28;20165;-68
2023/09/12 09:33:15;;;;;;;24.25;17.27;;;20.00;99.90;;;;;;5002923;28;20125;-68
2023/09/12 09:35:46;;;;;;;23.27;15.63;;;20.00;99.90;;;;;;5006764;28;20151;-67
2023/09/12 09:38:19;;;;;;;25.05;15.35;;;20.10;99.90;;;;;;5006050;28;20123;-68
2023/09/12 09:40:45;;;;;;;20.52;14.35;;;20.20;99.90;;;;;;4988865;28;20128;-68
2023/09/12 09:43:13;;;;;;;21.00;15.30;;;20.20;99.90;;;;;;5005232;28;20042;-67
2023/09/12 09:45:45;;;;;;;24.48;15.07;;;20.40;99.90;;;;;;5003433;28;20514;-67
2023/09/12 09:48:19;;;;;;;19.65;14.65;;;20.50;99.90;;;;;;5006132;28;20081;-68
2023/09/12 09:50:45;;;;;;;23.13;15.13;;;20.70;99.90;;;;;;5005389;28;20045;-69
2023/09/12 09:53:10;;;;;;;19.33;14.15;;;20.70;99.90;;;;;;5005668;28;20136;-69
2023/09/12 09:55:38;;;;;;;21.25;12.90;;;20.90;99.90;;;;;;4970327;28;20042;-69
2023/09/12 09:58:06;;;;;;;18.75;13.90;;;20.90;99.90;;;;;;4988057;28;20053;-68
2023/09/12 10:00:36;;;;;;;18.98;13.68;;;21.00;99.90;;;;;;5005862;28;20052;-69
2023/09/12 10:03:05;;;;;;;19.63;13.63;;;21.20;99.90;;;;;;4971420;28;20132;-70
2023/09/12 10:05:32;;;;;;;19.77;12.85;;;21.30;99.90;;;;;;4987428;28;20053;-68
2023/09/12 10:08:02;;;;;;;18.92;13.75;;;21.50;99.90;;;;;;5005280;28;20100;-68
2023/09/12 10:10:29;;;;;;;19.25;12.65;;;21.50;99.90;;;;;;4988136;28;20107;-68
2023/09/12 10:12:58;;;;;;;22.35;13.77;;;21.70;99.90;;;;;;4990997;28;20045;-68
2023/09/12 10:15:29;;;;;;;23.07;13.47;;;21.70;99.90;;;;;;4979146;28;20124;-68
2023/09/12 10:17:58;;;;;;;19.02;13.52;;;21.80;99.90;;;;;;4989897;28;20050;-68
2023/09/12 10:20:45;;;;;;;19.13;12.80;;;21.80;99.90;;;;;;5006115;28;20046;-68
2023/09/12 10:23:36;;;;;;;16.17;12.45;;;21.80;99.90;;;;;;4995362;28;20100;-68
2023/09/12 10:26:03;;;;;;;20.98;13.85;;;21.80;99.90;;;;;;4980528;28;20058;-68
2023/09/12 10:28:29;;;;;;;18.92;12.25;;;21.80;99.90;;;;;;4990503;28;20508;-68
2023/09/12 10:30:57;;;;;;;21.52;13.02;;;21.80;99.90;;;;;;5005903;28;20061;-68
2023/09/12 10:33:23;;;;;;;18.27;11.88;;;21.90;99.90;;;;;;4988762;28;20046;-68
2023/09/12 10:35:50;;;;;;;19.65;13.40;;;22.00;99.90;;;;;;4988486;28;20076;-67
2023/09/12 10:38:18;;;;;;;19.73;13.75;;;22.00;99.90;;;;;;4986478;28;20053;-68
2023/09/12 10:40:47;;;;;;;18.55;13.80;;;22.00;99.90;;;;;;4993195;28;20085;-68
2023/09/12 10:43:14;;;;;;;16.08;12.25;;;22.10;99.90;;;;;;5005975;28;20073;-67
2023/09/12 10:45:41;;;;;;;19.70;13.45;;;22.10;99.90;;;;;;4990870;28;20030;-67
2023/09/12 10:48:09;;;;;;;21.48;13.63;;;22.10;99.90;;;;;;5009175;28;20132;-67
2023/09/12 10:50:35;;;;;;;19.63;12.90;;;22.10;99.90;;;;;;5007264;28;20046;-67
2023/09/12 10:53:11;;;;;;;19.90;13.25;;;22.10;99.90;;;;;;4990434;28;20053;-67
2023/09/12 10:55:37;;;;;;;21.75;14.48;;;22.30;99.90;;;;;;5007322;28;20416;-67
2023/09/12 10:58:05;;;;;;;22.20;13.35;;;22.30;99.90;;;;;;4992438;28;20050;-67
2023/09/12 11:00:32;;;;;;;18.20;12.43;;;22.40;99.90;;;;;;5006676;28;20455;-68
2023/09/12 11:03:02;;;;;;;18.25;13.27;;;22.50;99.90;;;;;;5008196;28;20049;-67
2023/09/12 11:05:33;;;;;;;20.17;12.85;;;22.50;99.90;;;;;;4991263;28;20164;-67
2023/09/12 11:08:00;;;;;;;16.63;11.15;;;22.50;99.90;;;;;;5003429;28;20054;-66
2023/09/12 11:10:27;;;;;;;17.50;11.60;;;22.60;99.90;;;;;;5008174;28;20061;-66
2023/09/12 11:12:56;;;;;;;18.63;12.05;;;22.70;99.90;;;;;;5006081;28;20116;-66
2023/09/12 11:15:25;;;;;;;20.13;11.63;;;22.70;99.90;;;;;;4988389;28;20093;-66
2023/09/12 11:18:06;;;;;;;17.23;11.93;;;22.70;99.90;;;;;;5007927;28;20134;-66
2023/09/12 11:20:53;;;;;;;21.40;12.90;;;22.70;99.90;;;;;;4990987;28;20133;-66
2023/09/12 11:23:19;;;;;;;19.92;13.40;;;22.80;99.90;;;;;;5006412;28;20950;-66
2023/09/12 11:25:45;;;;;;;19.00;12.65;;;22.80;99.90;;;;;;5006594;28;20575;-66
2023/09/12 11:28:11;;;;;;;21.13;11.88;;;23.00;99.90;;;;;;5009687;28;20057;-66
2023/09/12 11:30:54;;;;;;;19.98;11.88;;;23.10;99.90;;;;;;5007720;28;20065;-66
2023/09/12 11:33:21;;;;;;;21.00;11.57;;;23.10;99.90;;;;;;4967234;28;20053;-66
2023/09/12 11:35:53;;;;;;;17.42;12.02;;;23.20;99.90;;;;;;4988860;28;20464;-66
2023/09/12 11:38:27;;;;;;;20.73;13.95;;;23.20;99.90;;;;;;4988838;28;20184;-66
2023/09/12 11:40:53;;;;;;;22.00;11.85;;;23.20;99.90;;;;;;5006764;28;20046;-65
2023/09/12 11:43:24;;;;;;;20.80;11.93;;;23.30;99.90;;;;;;5006081;28;20068;-65
2023/09/12 11:45:53;;;;;;;18.92;11.63;;;23.40;99.90;;;;;;4988502;28;20500;-65
2023/09/12 11:48:20;;;;;;;20.35;12.32;;;23.40;99.90;;;;;;5002829;28;20061;-65
2023/09/12 11:50:56;;;;;;;22.58;11.73;;;23.40;99.90;;;;;;5006357;28;20524;-65
2023/09/12 11:53:25;;;;;;;20.75;13.18;;;23.50;99.90;;;;;;5008455;28;20049;-65
2023/09/12 11:55:52;;;;;;;;;;;23.70;99.90;;;;;;4980389;28;20049;-65
2023/09/12 11:58:19;;;;;;;17.77;10.90;;;23.90;99.90;;;;;;5009173;28;20403;-65
2023/09/12 12:00:56;;;;;;;21.30;11.15;;;24.10;99.90;;;;;;5007688;28;20044;-65
2023/09/12 12:03:23;;;;;;;20.80;11.75;;;24.20;99.90;;;;;;5008961;28;20046;-66
2023/09/12 12:05:50;;;;;;;14.00;10.70;;;24.30;99.90;;;;;;5007008;28;20061;-66
2023/09/12 12:08:17;;;;;;;17.77;12.13;;;24.20;99.90;;;;;;5007789;28;20042;-65
2023/09/12 12:10:43;;;;;;;20.20;13.13;;;24.10;99.90;;;;;;5013531;28;20116;-65
2023/09/12 12:13:16;;;;;;;15.10;10.27;;;23.90;99.50;;;;;;5008400;28;20538;-65
2023/09/12 12:15:44;;;;;;;20.15;12.18;;;23.90;99.90;;;;;;5022591;28;20072;-65
2023/09/12 12:18:10;;;;;;;17.85;12.10;;;23.80;99.90;;;;;;5008112;28;20400;-65
2023/09/12 12:20:36;;;;;;;19.80;12.15;;;23.80;99.90;;;;;;5008426;28;20050;-65
2023/09/12 12:23:02;;;;;;;15.63;11.63;;;23.80;99.90;;;;;;4976594;28;20049;-65
2023/09/12 12:25:33;;;;;;;19.08;12.48;;;23.80;99.90;;;;;;4990624;28;20049;-65
2023/09/12 12:27:59;;;;;;;17.23;11.55;;;23.80;99.90;;;;;;5018447;28;20128;-65
2023/09/12 12:30:24;;;;;;;15.35;10.75;;;23.80;99.90;;;;;;5007556;28;20553;-66
2023/09/12 12:32:50;;;;;;;14.32;10.68;;;24.00;99.90;;;;;;5008208;28;20422;-65
2023/09/12 12:35:21;;;;;;;15.23;9.57;;;24.10;99.90;;;;;;5007857;28;20049;-65
2023/09/12 12:37:50;;;;;;;17.17;12.40;;;24.00;96.80;;;;;;5007785;28;20206;-65
2023/09/12 12:40:16;;;;;;;;;;;23.90;95.00;;;;;;4990691;28;20050;-65
2023/09/12 12:42:44;;;;;;;15.05;9.88;;;24.00;97.80;;;;;;5007960;28;20448;-65
2023/09/12 12:45:18;;;;;;;15.23;9.45;;;24.00;99.10;;;;;;4988651;28;20148;-65
2023/09/12 12:47:45;;;;;;;14.93;10.38;;;24.10;98.90;;;;;;5007376;28;20121;-65
2023/09/12 12:50:15;;;;;;;14.60;9.15;;;24.20;96.20;;;;;;5008205;28;20042;-65
2023/09/12 12:52:41;;;;;;;11.63;8.60;;;24.20;95.60;;;;;;4989358;28;20100;-65
2023/09/12 12:55:11;;;;;;;10.90;8.23;;;24.20;93.00;;;;;;5007304;28;20321;-65